SLVR/VVI METAR and TAF weather

Enter ICAO airport designator
Station Type Date Time Source
SLVR METAR 2019/02/21 15:00 UTC NOAA

SLVR 211500Z 33012G22KT 9999 FEW012 SCT016 31/23 Q1012


Station Type Date Time Source
SLVR Decoded METAR 2019/02/21 15:00 UTC NOAA

Viru-Viru, Bolivia (SLVR) 17-38S 063-08W
Feb 21, 2019 - 10:00 AM EST / 2019.02.21 1500 UTC
Wind: from the NNW (330 degrees) at 14 MPH (12 KT) gusting to 25 MPH (22 KT):0
Visibility: greater than 7 mile(s):0
Sky conditions: partly cloudy
Temperature: 87 F (31 C)
Heat index: 93.9 F (34.4 C):1
Dew Point: 73 F (23 C)
Relative Humidity: 62%
Pressure (altimeter): 29.88 in. Hg (1012 hPa)
ob: SLVR 211500Z 33012G22KT 9999 FEW012 SCT016 31/23 Q1012
cycle: 15

Station Type Date Time Source
SLVR TAF 2019/02/21 12:27 UTC NOAA

TAF SLVR 210950Z 2112/2212 34015G25KT 9999 BKN020 FEW027TCU TX33/ 2119Z TN23/2210Z PROB30
TEMPO 2119/2123 8000 SHRA
BECMG 2123/2201 34008KT NSC


Example: see airport list